Time;durP1;ratioP1;P1;durP2;ratioP2;P2;SDS_P1;SDS_P2;PMS_P1;PMS_P2;Temp;Humidity;BMP_temperature;BMP_pressure;BME280_temperature;BME280_humidity;BME280_pressure;Samples;Min_cycle;Max_cycle;Signal;HPM_P1;HPM_P2
2024/02/28 00:01:37;;;;;;;;;;;11.50;87.40;;;;;;5014498;28;86576;-58
2024/02/28 00:04:03;;;;;;;;;;;11.50;87.40;;;;;;5011006;28;87726;-60
2024/02/28 00:06:28;;;;;;;;;;;11.50;87.40;;;;;;5017309;28;87057;-59
2024/02/28 00:08:54;;;;;;;;;;;11.50;87.20;;;;;;5016517;28;89751;-60
2024/02/28 00:11:20;;;;;;;;;;;11.50;87.30;;;;;;5013791;28;87007;-60
2024/02/28 00:13:46;;;;;;;;;;;11.50;87.30;;;;;;5010243;28;86998;-60
2024/02/28 00:16:12;;;;;;;;;;;11.50;87.10;;;;;;5007220;28;87732;-60
2024/02/28 00:18:37;;;;;;;;;;;11.50;87.20;;;;;;5016420;28;86926;-56
2024/02/28 00:21:03;;;;;;;;;;;11.40;87.20;;;;;;5016993;28;88420;-60
2024/02/28 00:23:29;;;;;;;;;;;11.40;87.20;;;;;;5014699;28;87388;-60
2024/02/28 00:25:55;;;;;;;;;;;11.40;87.20;;;;;;5017551;28;86342;-60
2024/02/28 00:28:21;;;;;;;;;;;11.40;87.20;;;;;;5018004;28;87539;-60
2024/02/28 00:30:46;;;;;;;;;;;11.40;87.20;;;;;;5016895;28;87994;-59
2024/02/28 00:33:12;;;;;;;;;;;11.40;87.20;;;;;;5013268;28;88438;-60
2024/02/28 00:35:39;;;;;;;;;;;11.40;87.20;;;;;;5018532;28;87824;-60
2024/02/28 00:38:05;;;;;;;;;;;11.40;87.20;;;;;;5016486;28;87044;-60
2024/02/28 00:40:30;;;;;;;;;;;11.40;87.10;;;;;;5016836;28;87130;-60
2024/02/28 00:42:57;;;;;;;;;;;11.40;87.20;;;;;;5016500;28;87794;-59
2024/02/28 00:45:23;;;;;;;;;;;11.30;87.10;;;;;;5011900;28;87078;-60
2024/02/28 00:47:49;;;;;;;;;;;11.30;87.10;;;;;;5012120;28;87014;-60
2024/02/28 00:50:14;;;;;;;;;;;11.30;87.10;;;;;;5012714;28;86659;-60
2024/02/28 00:52:40;;;;;;;;;;;11.30;87.10;;;;;;5013232;28;87854;-59
2024/02/28 00:55:06;;;;;;;;;;;11.30;87.60;;;;;;5015878;28;87569;-60
2024/02/28 00:57:31;;;;;;;;;;;11.30;87.10;;;;;;5018866;28;88870;-60
2024/02/28 01:00:15;;;;;;;;;;;11.30;86.90;;;;;;5013750;28;87703;-59
2024/02/28 01:02:41;;;;;;;;;;;11.30;86.90;;;;;;5012423;28;86963;-60
2024/02/28 01:05:07;;;;;;;;;;;11.30;86.90;;;;;;5016893;28;86984;-59
2024/02/28 01:07:32;;;;;;;;;;;11.30;86.90;;;;;;5017568;28;86955;-60
2024/02/28 01:09:58;;;;;;;;;;;11.20;86.80;;;;;;5012848;28;87448;-60
2024/02/28 01:12:23;;;;;;;;;;;11.20;86.80;;;;;;5018089;28;87431;-60
2024/02/28 01:14:49;;;;;;;;;;;11.20;86.80;;;;;;5014167;28;86817;-60
2024/02/28 01:17:14;;;;;;;;;;;11.20;86.80;;;;;;5014208;28;87199;-60
2024/02/28 01:19:40;;;;;;;;;;;11.20;86.80;;;;;;5017137;28;87538;-60
2024/02/28 01:22:05;;;;;;;;;;;11.20;86.90;;;;;;5014868;28;88852;-59
2024/02/28 01:24:33;;;;;;;;;;;11.20;86.80;;;;;;5016917;28;87692;-60
2024/02/28 01:26:59;;;;;;;;;;;11.20;86.80;;;;;;5015190;28;87103;-59
2024/02/28 01:29:24;;;;;;;;;;;11.20;86.70;;;;;;5016249;28;87481;-60
2024/02/28 01:31:50;;;;;;;;;;;11.10;86.70;;;;;;5019821;28;87111;-60
2024/02/28 01:34:15;;;;;;;;;;;11.20;86.70;;;;;;5014336;28;89453;-59
2024/02/28 01:36:41;;;;;;;;;;;11.20;86.60;;;;;;5016053;28;88423;-60
2024/02/28 01:39:06;;;;;;;;;;;11.10;86.50;;;;;;5012162;28;86889;-60
2024/02/28 01:41:32;;;;;;;;;;;11.10;86.60;;;;;;5016556;28;87384;-60
2024/02/28 01:43:57;;;;;;;;;;;11.10;86.60;;;;;;5017180;28;86977;-59
2024/02/28 01:46:27;;;;;;;;;;;11.10;86.70;;;;;;5010632;28;88458;-60
2024/02/28 01:48:56;;;;;;;;;;;11.10;86.70;;;;;;5014527;28;90262;-60
2024/02/28 01:51:23;;;;;;;;;;;11.10;86.60;;;;;;5014532;28;87390;-58
2024/02/28 01:53:49;;;;;;;;;;;11.10;86.70;;;;;;5016944;28;87013;-58
2024/02/28 01:56:16;;;;;;;;;;;11.00;86.50;;;;;;5013768;28;87514;-59
2024/02/28 01:58:43;;;;;;;;;;;11.00;86.60;;;;;;5019221;28;87038;-60
2024/02/28 02:01:10;;;;;;;;;;;11.00;86.50;;;;;;5016718;28;87610;-59
2024/02/28 02:03:35;;;;;;;;;;;11.00;86.70;;;;;;5012956;28;86271;-60
2024/02/28 02:06:02;;;;;;;;;;;11.00;86.50;;;;;;5016795;28;86956;-60
2024/02/28 02:08:27;;;;;;;;;;;11.00;86.50;;;;;;5015416;28;90049;-58
2024/02/28 02:10:53;;;;;;;;;;;11.00;86.40;;;;;;5016650;28;87946;-59
2024/02/28 02:13:18;;;;;;;;;;;11.00;86.50;;;;;;5016821;28;88589;-60
2024/02/28 02:15:44;;;;;;;;;;;11.00;86.50;;;;;;5022198;28;87637;-60
2024/02/28 02:18:10;;;;;;;;;;;11.00;86.60;;;;;;5017800;28;86858;-60
2024/02/28 02:20:38;;;;;;;;;;;11.00;86.80;;;;;;5015267;28;87773;-60
2024/02/28 02:23:04;;;;;;;;;;;10.90;86.60;;;;;;5016504;28;87164;-60
2024/02/28 02:25:30;;;;;;;;;;;10.90;86.50;;;;;;5014578;28;87029;-60
2024/02/28 02:27:55;;;;;;;;;;;11.00;86.60;;;;;;5014633;28;86285;-58
2024/02/28 02:30:21;;;;;;;;;;;10.90;86.50;;;;;;5014255;28;86941;-60
2024/02/28 02:32:46;;;;;;;;;;;10.90;86.50;;;;;;5015248;28;86969;-59
2024/02/28 02:35:12;;;;;;;;;;;10.90;86.50;;;;;;5018584;28;88476;-59
2024/02/28 02:37:37;;;;;;;;;;;10.90;86.50;;;;;;5017561;28;87706;-60
2024/02/28 02:40:03;;;;;;;;;;;10.80;86.40;;;;;;5015803;28;87520;-60
2024/02/28 02:42:29;;;;;;;;;;;10.80;86.40;;;;;;5012303;28;87277;-60
2024/02/28 02:44:54;;;;;;;;;;;10.80;86.50;;;;;;5013374;28;86995;-60
2024/02/28 02:47:20;;;;;;;;;;;10.90;86.40;;;;;;5015778;28;87892;-60
2024/02/28 02:49:45;;;;;;;;;;;10.80;86.30;;;;;;5012513;28;87861;-58
2024/02/28 02:52:11;;;;;;;;;;;10.80;86.30;;;;;;5015825;28;89300;-60
2024/02/28 02:54:36;;;;;;;;;;;10.80;86.40;;;;;;5013087;28;87422;-60
2024/02/28 02:57:02;;;;;;;;;;;10.80;86.40;;;;;;5015472;28;87430;-59
2024/02/28 02:59:28;;;;;;;;;;;10.80;86.30;;;;;;5016620;28;87880;-60
2024/02/28 03:01:54;;;;;;;;;;;10.80;86.50;;;;;;5018998;28;87009;-60
2024/02/28 03:04:19;;;;;;;;;;;10.80;86.30;;;;;;5009242;28;87079;-60
2024/02/28 03:06:45;;;;;;;;;;;10.80;86.40;;;;;;5012106;28;87423;-59
2024/02/28 03:09:10;;;;;;;;;;;10.80;86.40;;;;;;5014937;28;86952;-60
2024/02/28 03:11:36;;;;;;;;;;;10.80;86.40;;;;;;5013438;28;86974;-60
2024/02/28 03:14:02;;;;;;;;;;;10.70;86.30;;;;;;5015475;28;87901;-59
2024/02/28 03:16:29;;;;;;;;;;;10.70;86.30;;;;;;5013096;28;86279;-58
2024/02/28 03:18:54;;;;;;;;;;;10.70;86.40;;;;;;5012537;28;86796;-60
2024/02/28 03:21:21;;;;;;;;;;;10.70;86.50;;;;;;5015761;28;87594;-59
2024/02/28 03:23:46;;;;;;;;;;;10.70;86.30;;;;;;5014936;28;87909;-60
2024/02/28 03:26:12;;;;;;;;;;;10.70;86.40;;;;;;5014853;28;87638;-60
2024/02/28 03:28:37;;;;;;;;;;;10.60;86.40;;;;;;5012935;28;87026;-60
2024/02/28 03:31:03;;;;;;;;;;;10.60;86.30;;;;;;5013196;28;86927;-60
2024/02/28 03:33:31;;;;;;;;;;;10.60;86.30;;;;;;5019138;28;87489;-59
2024/02/28 03:35:57;;;;;;;;;;;10.60;86.30;;;;;;5016568;28;86990;-60
2024/02/28 03:38:22;;;;;;;;;;;10.60;86.50;;;;;;5019403;28;87854;-60
2024/02/28 03:40:48;;;;;;;;;;;10.60;86.30;;;;;;5013093;28;86626;-59
2024/02/28 03:43:13;;;;;;;;;;;10.60;86.40;;;;;;5014309;28;87054;-60
2024/02/28 03:45:39;;;;;;;;;;;10.60;86.30;;;;;;5009686;28;87407;-60
2024/02/28 03:48:05;;;;;;;;;;;10.60;86.40;;;;;;5014087;28;88007;-58
2024/02/28 03:50:30;;;;;;;;;;;10.50;86.30;;;;;;5012759;28;87750;-58
2024/02/28 03:52:56;;;;;;;;;;;10.50;86.40;;;;;;5012910;28;86899;-56
2024/02/28 03:55:21;;;;;;;;;;;10.50;86.40;;;;;;5014332;28;86886;-60
2024/02/28 03:57:48;;;;;;;;;;;10.50;86.40;;;;;;5017651;28;87048;-60
2024/02/28 04:00:13;;;;;;;;;;;10.50;86.50;;;;;;5023483;28;86947;-60
2024/02/28 04:02:39;;;;;;;;;;;10.50;86.50;;;;;;5024503;28;86854;-60
2024/02/28 04:05:05;;;;;;;;;;;10.40;86.50;;;;;;5018876;28;86808;-60
2024/02/28 04:07:30;;;;;;;;;;;10.50;86.50;;;;;;5016316;28;87831;-60
2024/02/28 04:09:56;;;;;;;;;;;10.40;86.40;;;;;;5020026;28;87764;-58
2024/02/28 04:12:21;;;;;;;;;;;10.40;86.40;;;;;;5017117;28;88471;-60
2024/02/28 04:14:47;;;;;;;;;;;10.40;86.40;;;;;;5015040;28;86916;-60
2024/02/28 04:17:12;;;;;;;;;;;10.40;86.40;;;;;;5014368;28;87963;-60
2024/02/28 04:19:39;;;;;;;;;;;10.40;86.40;;;;;;5016141;28;87539;-60
2024/02/28 04:22:04;;;;;;;;;;;10.40;86.40;;;;;;5018379;28;86999;-60
2024/02/28 04:24:30;;;;;;;;;;;10.30;86.30;;;;;;5020151;28;87270;-60
2024/02/28 04:26:58;;;;;;;;;;;10.40;86.30;;;;;;5021750;28;87003;-57
2024/02/28 04:29:23;;;;;;;;;;;10.40;86.40;;;;;;5020519;28;86673;-60
2024/02/28 04:31:49;;;;;;;;;;;10.30;86.30;;;;;;5017721;28;87524;-60
2024/02/28 04:34:14;;;;;;;;;;;10.30;86.30;;;;;;5018289;28;87057;-60
2024/02/28 04:36:40;;;;;;;;;;;10.30;86.30;;;;;;5024341;28;89259;-60
2024/02/28 04:39:07;;;;;;;;;;;10.30;86.40;;;;;;5018794;28;87831;-60
2024/02/28 04:41:33;;;;;;;;;;;10.30;86.40;;;;;;5012532;28;87849;-60
2024/02/28 04:43:59;;;;;;;;;;;10.30;86.30;;;;;;5014061;28;87120;-60
2024/02/28 04:46:25;;;;;;;;;;;10.30;86.20;;;;;;5017631;28;87612;-60
2024/02/28 04:48:50;;;;;;;;;;;10.30;86.40;;;;;;5017559;28;88210;-60
2024/02/28 04:51:19;;;;;;;;;;;10.20;86.20;;;;;;5015653;28;87551;-60
2024/02/28 04:53:44;;;;;;;;;;;10.20;86.30;;;;;;5016401;28;86275;-58
2024/02/28 04:56:10;;;;;;;;;;;10.20;86.40;;;;;;5017278;28;86880;-60
2024/02/28 04:58:36;;;;;;;;;;;10.20;86.50;;;;;;5013277;28;87713;-60
2024/02/28 05:01:01;;;;;;;;;;;10.20;86.40;;;;;;5014034;28;87951;-60
2024/02/28 05:03:27;;;;;;;;;;;10.20;86.40;;;;;;5019445;28;87937;-60
2024/02/28 05:05:52;;;;;;;;;;;10.20;86.50;;;;;;5016611;28;88566;-60
2024/02/28 05:08:21;;;;;;;;;;;10.20;86.40;;;;;;5014820;28;87041;-60
2024/02/28 05:10:47;;;;;;;;;;;10.10;86.50;;;;;;5014843;28;87579;-60
2024/02/28 05:13:12;;;;;;;;;;;10.10;86.60;;;;;;5014904;28;87241;-60
2024/02/28 05:15:38;;;;;;;;;;;10.10;86.50;;;;;;5017178;28;87116;-60
2024/02/28 05:18:04;;;;;;;;;;;10.10;86.40;;;;;;5015510;28;86687;-59
2024/02/28 05:20:29;;;;;;;;;;;10.10;86.40;;;;;;5015116;28;87061;-60
2024/02/28 05:22:55;;;;;;;;;;;10.00;86.40;;;;;;5012875;28;87146;-60
2024/02/28 05:25:20;;;;;;;;;;;10.00;86.50;;;;;;5017401;28;88210;-60
2024/02/28 05:27:46;;;;;;;;;;;10.00;86.60;;;;;;5017587;28;87845;-60
2024/02/28 05:30:11;;;;;;;;;;;10.00;86.50;;;;;;5021154;28;87027;-60
2024/02/28 05:32:37;;;;;;;;;;;10.00;86.60;;;;;;5017962;28;87033;-60
2024/02/28 05:35:03;;;;;;;;;;;10.00;86.60;;;;;;5015880;28;86948;-60
2024/02/28 05:37:28;;;;;;;;;;;10.00;86.60;;;;;;5018128;28;86932;-58
2024/02/28 05:39:54;;;;;;;;;;;10.00;86.40;;;;;;5017665;28;88265;-60
2024/02/28 05:42:23;;;;;;;;;;;10.00;86.50;;;;;;5010603;28;87194;-60
2024/02/28 05:44:50;;;;;;;;;;;10.00;86.50;;;;;;5014662;28;87504;-60
2024/02/28 05:47:15;;;;;;;;;;;10.00;86.50;;;;;;5013596;28;86956;-59
2024/02/28 05:49:41;;;;;;;;;;;9.90;86.60;;;;;;5016596;28;89032;-58
2024/02/28 05:52:06;;;;;;;;;;;9.90;86.60;;;;;;5011634;28;87474;-60
2024/02/28 05:54:34;;;;;;;;;;;9.90;86.60;;;;;;5013798;28;86921;-59
2024/02/28 05:57:00;;;;;;;;;;;9.90;86.60;;;;;;5013466;28;87668;-60
2024/02/28 05:59:26;;;;;;;;;;;9.90;86.60;;;;;;5019397;28;87194;-60
2024/02/28 06:01:51;;;;;;;;;;;9.90;86.60;;;;;;5010759;28;87090;-60
2024/02/28 06:04:17;;;;;;;;;;;9.90;86.70;;;;;;5022183;28;87513;-59
2024/02/28 06:06:42;;;;;;;;;;;9.80;86.50;;;;;;5014339;28;86381;-60
2024/02/28 06:09:08;;;;;;;;;;;9.80;86.70;;;;;;5008055;28;88520;-59
2024/02/28 06:11:33;;;;;;;;;;;9.90;86.70;;;;;;5015641;28;87678;-60
2024/02/28 06:13:59;;;;;;;;;;;9.80;86.40;;;;;;5013102;28;87896;-60
2024/02/28 06:16:25;;;;;;;;;;;9.90;86.60;;;;;;5012436;28;88544;-60
2024/02/28 06:18:50;;;;;;;;;;;9.80;86.50;;;;;;5015145;28;87049;-58
2024/02/28 06:21:16;;;;;;;;;;;9.90;86.50;;;;;;5013412;28;86985;-60
2024/02/28 06:23:41;;;;;;;;;;;9.90;86.50;;;;;;5017667;28;87480;-60
2024/02/28 06:26:14;;;;;;;;;;;9.90;86.40;;;;;;5011437;28;87148;-59
2024/02/28 06:28:42;;;;;;;;;;;9.90;86.50;;;;;;5010027;28;86993;-60
2024/02/28 06:31:12;;;;;;;;;;;9.90;86.40;;;;;;5012702;28;87098;-60
2024/02/28 06:33:37;;;;;;;;;;;9.80;86.50;;;;;;5031360;28;87158;-60
2024/02/28 06:36:03;;;;;;;;;;;9.80;86.50;;;;;;5015921;28;88182;-60
2024/02/28 06:38:29;;;;;;;;;;;9.80;86.50;;;;;;5007629;28;88499;-58
2024/02/28 06:40:54;;;;;;;;;;;9.80;86.60;;;;;;5009018;28;87669;-60
2024/02/28 06:43:20;;;;;;;;;;;9.90;86.60;;;;;;5014002;28;86961;-60
2024/02/28 06:45:45;;;;;;;;;;;9.80;86.60;;;;;;5015799;28;87060;-59
2024/02/28 06:48:11;;;;;;;;;;;9.80;86.60;;;;;;5014835;28;87797;-58
2024/02/28 06:50:36;;;;;;;;;;;9.80;86.60;;;;;;5011454;28;89387;-60
2024/02/28 06:53:02;;;;;;;;;;;9.80;86.70;;;;;;5012274;28;87114;-56
2024/02/28 06:55:27;;;;;;;;;;;9.80;86.70;;;;;;5020734;28;89498;-60
2024/02/28 06:57:53;;;;;;;;;;;9.80;86.70;;;;;;5013923;28;88588;-60
2024/02/28 07:00:19;;;;;;;;;;;9.80;86.80;;;;;;5015052;28;87022;-60
2024/02/28 07:02:45;;;;;;;;;;;9.80;86.80;;;;;;5010964;28;88901;-60
2024/02/28 07:05:10;;;;;;;;;;;9.80;86.80;;;;;;5011196;28;87073;-59
2024/02/28 07:07:36;;;;;;;;;;;9.80;86.70;;;;;;5011028;28;88559;-60
2024/02/28 07:10:05;;;;;;;;;;;9.80;86.60;;;;;;5009412;28;87595;-60
2024/02/28 07:12:30;;;;;;;;;;;9.80;86.70;;;;;;5011981;28;86796;-60
2024/02/28 07:14:56;;;;;;;;;;;9.80;86.70;;;;;;5015933;28;87315;-56
2024/02/28 07:17:22;;;;;;;;;;;9.80;86.80;;;;;;5014318;28;87499;-60
2024/02/28 07:19:47;;;;;;;;;;;9.80;86.80;;;;;;5010867;28;86248;-60
2024/02/28 07:22:13;;;;;;;;;;;9.90;86.80;;;;;;5012490;28;87626;-57
2024/02/28 07:24:39;;;;;;;;;;;9.90;86.70;;;;;;5017619;28;87816;-60
2024/02/28 07:27:04;;;;;;;;;;;9.80;86.70;;;;;;5012026;28;88099;-59
2024/02/28 07:29:30;;;;;;;;;;;9.80;86.70;;;;;;5011065;28;88433;-59
2024/02/28 07:31:56;;;;;;;;;;;9.90;86.80;;;;;;5014620;28;87136;-59
2024/02/28 07:34:21;;;;;;;;;;;9.90;86.80;;;;;;5013890;28;86908;-59
2024/02/28 07:36:47;;;;;;;;;;;9.90;86.80;;;;;;5008788;28;87765;-59
2024/02/28 07:39:13;;;;;;;;;;;9.90;86.80;;;;;;5014166;28;88806;-60
2024/02/28 07:41:39;;;;;;;;;;;9.90;86.90;;;;;;5014386;28;87626;-60
2024/02/28 07:44:05;;;;;;;;;;;9.90;86.80;;;;;;5013281;28;86588;-60
2024/02/28 07:46:30;;;;;;;;;;;9.90;86.90;;;;;;5013762;28;86987;-59
2024/02/28 07:48:56;;;;;;;;;;;9.90;87.00;;;;;;5010312;28;87713;-60
2024/02/28 07:51:22;;;;;;;;;;;9.90;87.00;;;;;;5019385;28;87960;-60
2024/02/28 07:53:47;;;;;;;;;;;9.90;87.00;;;;;;5015344;28;87623;-60
2024/02/28 07:56:17;;;;;;;;;;;9.80;87.10;;;;;;5005684;28;86972;-59
2024/02/28 07:58:43;;;;;;;;;;;9.80;87.10;;;;;;5010452;28;86980;-59
2024/02/28 08:01:08;;;;;;;;;;;9.90;87.10;;;;;;5013196;28;86977;-60
2024/02/28 08:03:34;;;;;;;;;;;9.90;87.20;;;;;;5010289;28;88033;-60
2024/02/28 08:05:59;;;;;;;;;;;9.80;87.20;;;;;;5013173;28;87467;-57
2024/02/28 08:08:25;;;;;;;;;;;9.90;87.30;;;;;;5012042;28;86957;-57
2024/02/28 08:10:52;;;;;;;;;;;9.80;87.30;;;;;;5019571;28;87217;-60
2024/02/28 08:13:18;;;;;;;;;;;9.90;87.40;;;;;;5014436;28;86926;-59
2024/02/28 08:15:44;;;;;;;;;;;9.80;87.40;;;;;;5011687;28;88680;-57
2024/02/28 08:18:11;;;;;;;;;;;9.90;87.50;;;;;;5010786;28;87009;-60
2024/02/28 08:20:37;;;;;;;;;;;9.90;87.40;;;;;;5014682;28;88567;-60
2024/02/28 08:23:03;;;;;;;;;;;9.90;87.40;;;;;;5020595;28;86944;-60
2024/02/28 08:25:29;;;;;;;;;;;9.90;87.50;;;;;;5009457;28;87663;-58
2024/02/28 08:27:54;;;;;;;;;;;9.90;87.50;;;;;;5007804;28;88138;-59
2024/02/28 08:30:20;;;;;;;;;;;9.90;87.50;;;;;;5011647;28;86963;-60
2024/02/28 08:32:45;;;;;;;;;;;9.90;87.50;;;;;;5014430;28;86943;-58
2024/02/28 08:35:11;;;;;;;;;;;9.80;87.50;;;;;;5008549;28;87320;-59
2024/02/28 08:37:40;;;;;;;;;;;9.90;87.50;;;;;;5012420;28;88759;-60
2024/02/28 08:40:06;;;;;;;;;;;9.90;87.50;;;;;;5013291;28;87775;-60
2024/02/28 08:42:32;;;;;;;;;;;9.90;87.40;;;;;;5021251;28;89292;-57
2024/02/28 08:44:59;;;;;;;;;;;9.90;87.40;;;;;;5010633;28;88313;-59
2024/02/28 08:47:25;;;;;;;;;;;9.90;87.40;;;;;;5018013;28;87552;-59
2024/02/28 08:49:51;;;;;;;;;;;9.90;87.40;;;;;;5015465;28;87025;-60
2024/02/28 08:52:17;;;;;;;;;;;9.90;87.40;;;;;;5013347;28;87035;-60
2024/02/28 08:54:43;;;;;;;;;;;9.90;87.40;;;;;;5014283;28;87750;-59
2024/02/28 08:57:08;;;;;;;;;;;9.90;87.40;;;;;;5015738;28;86184;-60
2024/02/28 08:59:34;;;;;;;;;;;10.00;87.40;;;;;;5016809;28;86948;-61
2024/02/28 09:01:59;;;;;;;;;;;9.90;87.40;;;;;;5013886;28;90059;-57
2024/02/28 09:04:25;;;;;;;;;;;9.90;87.40;;;;;;5014610;28;89068;-60
2024/02/28 09:06:52;;;;;;;;;;;10.00;87.50;;;;;;5020386;28;88788;-60
2024/02/28 09:09:18;;;;;;;;;;;10.00;87.40;;;;;;5017714;28;87573;-59
2024/02/28 09:11:44;;;;;;;;;;;10.00;87.20;;;;;;5016481;28;87648;-59
2024/02/28 09:14:09;;;;;;;;;;;10.00;87.30;;;;;;5008335;28;88985;-61
2024/02/28 09:16:35;;;;;;;;;;;10.00;87.30;;;;;;5016342;28;87071;-59
2024/02/28 09:19:00;;;;;;;;;;;10.00;87.30;;;;;;5012008;28;87641;-60
2024/02/28 09:21:26;;;;;;;;;;;10.00;87.10;;;;;;5017065;28;86984;-61
2024/02/28 09:23:52;;;;;;;;;;;10.00;87.10;;;;;;5011634;28;87052;-60
2024/02/28 09:26:17;;;;;;;;;;;10.00;87.30;;;;;;5016709;28;87019;-59
2024/02/28 09:28:43;;;;;;;;;;;10.00;87.40;;;;;;5010785;28;89857;-60
2024/02/28 09:31:09;;;;;;;;;;;10.00;87.40;;;;;;5016426;28;87825;-60
2024/02/28 09:33:35;;;;;;;;;;;10.00;87.70;;;;;;5015648;28;87420;-59
2024/02/28 09:36:04;;;;;;;;;;;10.00;87.80;;;;;;5011668;28;87102;-60
2024/02/28 09:38:29;;;;;;;;;;;10.00;88.00;;;;;;5016351;28;88978;-60
2024/02/28 09:40:55;;;;;;;;;;;10.00;88.00;;;;;;5015445;28;87510;-60
2024/02/28 09:43:28;;;;;;;;;;;10.00;88.10;;;;;;5020288;28;87898;-60
2024/02/28 09:45:57;;;;;;;;;;;10.00;88.40;;;;;;5017118;28;86982;-60
2024/02/28 09:48:22;;;;;;;;;;;10.00;88.40;;;;;;5016471;28;86969;-60
2024/02/28 09:50:48;;;;;;;;;;;10.00;88.40;;;;;;5015841;28;87374;-60
2024/02/28 09:53:13;;;;;;;;;;;10.00;88.60;;;;;;5010436;28;88497;-57
2024/02/28 09:55:39;;;;;;;;;;;10.00;89.00;;;;;;5011652;28;87064;-60
2024/02/28 09:58:05;;;;;;;;;;;10.00;88.90;;;;;;5021331;28;87439;-60
2024/02/28 10:00:30;;;;;;;;;;;10.00;89.00;;;;;;5014451;28;87424;-60
2024/02/28 10:02:57;;;;;;;;;;;10.00;89.10;;;;;;5015885;28;87179;-60
2024/02/28 10:05:26;;;;;;;;;;;10.00;89.10;;;;;;5017322;28;87034;-60
2024/02/28 10:07:53;;;;;;;;;;;10.00;89.10;;;;;;5018934;28;87424;-60
2024/02/28 10:10:18;;;;;;;;;;;10.10;89.40;;;;;;5018477;28;87818;-60
2024/02/28 10:12:44;;;;;;;;;;;10.10;89.30;;;;;;5011910;28;87701;-59
2024/02/28 10:15:11;;;;;;;;;;;10.10;89.40;;;;;;5011265;28;87208;-61
2024/02/28 10:17:36;;;;;;;;;;;10.10;89.40;;;;;;5012992;28;87894;-60
2024/02/28 10:20:04;;;;;;;;;;;10.10;89.40;;;;;;5011350;28;87473;-60
2024/02/28 10:22:36;;;;;;;;;;;10.20;89.40;;;;;;5011993;28;87037;-60
2024/02/28 10:25:01;;;;;;;;;;;10.20;89.20;;;;;;5012701;28;87403;-60
2024/02/28 10:27:27;;;;;;;;;;;10.20;89.20;;;;;;5018650;28;87465;-60
2024/02/28 10:29:52;;;;;;;;;;;10.20;89.40;;;;;;5017433;28;87247;-60
2024/02/28 10:32:18;;;;;;;;;;;10.20;89.50;;;;;;5012504;28;87539;-60
2024/02/28 10:34:44;;;;;;;;;;;10.20;89.60;;;;;;5015841;28;86281;-60
2024/02/28 10:37:10;;;;;;;;;;;10.30;89.60;;;;;;5014998;28;86736;-60
2024/02/28 10:39:36;;;;;;;;;;;10.20;89.50;;;;;;5010337;28;87600;-60
2024/02/28 10:42:03;;;;;;;;;;;10.30;89.60;;;;;;5008303;28;88069;-59
2024/02/28 10:44:30;;;;;;;;;;;10.20;89.60;;;;;;5012026;28;87889;-61
2024/02/28 10:46:57;;;;;;;;;;;10.30;89.70;;;;;;5016352;28;87677;-61
2024/02/28 10:49:22;;;;;;;;;;;10.30;89.80;;;;;;5013304;28;87127;-60
2024/02/28 10:51:48;;;;;;;;;;;10.30;89.90;;;;;;5012153;28;88315;-58
2024/02/28 10:54:15;;;;;;;;;;;10.30;89.90;;;;;;5014129;28;88752;-60
2024/02/28 10:56:41;;;;;;;;;;;10.30;89.90;;;;;;5013778;28;87830;-60
2024/02/28 10:59:08;;;;;;;;;;;10.30;89.90;;;;;;5015537;28;86636;-59
2024/02/28 11:01:35;;;;;;;;;;;10.30;90.00;;;;;;5012663;28;86977;-59
2024/02/28 11:04:01;;;;;;;;;;;10.30;90.00;;;;;;5015274;28;87765;-60
2024/02/28 11:06:27;;;;;;;;;;;10.40;90.10;;;;;;5012037;28;88820;-60
2024/02/28 11:08:53;;;;;;;;;;;10.40;90.00;;;;;;5013710;28;87236;-60
2024/02/28 11:11:22;;;;;;;;;;;10.40;90.00;;;;;;5010776;28;87336;-60
2024/02/28 11:13:57;;;;;;;;;;;10.40;90.00;;;;;;5012757;28;87991;-60
2024/02/28 11:16:32;;;;;;;;;;;10.40;90.00;;;;;;5014525;28;86958;-59
2024/02/28 11:18:58;;;;;;;;;;;10.40;90.00;;;;;;5009797;28;87024;-60
2024/02/28 11:21:25;;;;;;;;;;;10.50;89.90;;;;;;5011414;28;88345;-60
2024/02/28 11:23:51;;;;;;;;;;;10.50;89.90;;;;;;5013922;28;86887;-60
2024/02/28 11:26:17;;;;;;;;;;;10.50;89.90;;;;;;5022377;28;87684;-58
2024/02/28 11:28:43;;;;;;;;;;;10.50;90.00;;;;;;5014635;28;87055;-61
2024/02/28 11:31:09;;;;;;;;;;;10.50;90.00;;;;;;5013060;28;89742;-60
2024/02/28 11:33:35;;;;;;;;;;;10.50;90.00;;;;;;5009996;28;86769;-58
2024/02/28 11:36:03;;;;;;;;;;;10.60;90.00;;;;;;5013726;28;87136;-60
2024/02/28 11:38:28;;;;;;;;;;;10.60;90.00;;;;;;5013605;28;87055;-60
2024/02/28 11:40:55;;;;;;;;;;;10.60;90.00;;;;;;5009783;28;87143;-60
2024/02/28 11:43:21;;;;;;;;;;;10.60;89.90;;;;;;5013492;28;87046;-59
2024/02/28 11:45:46;;;;;;;;;;;10.60;90.00;;;;;;5010669;28;87412;-57
2024/02/28 11:48:16;;;;;;;;;;;10.60;90.00;;;;;;5009852;28;87107;-60
2024/02/28 11:50:42;;;;;;;;;;;10.60;90.00;;;;;;5010043;28;87132;-61
2024/02/28 11:53:08;;;;;;;;;;;10.60;90.00;;;;;;5012453;28;86980;-61
2024/02/28 11:55:33;;;;;;;;;;;10.60;90.00;;;;;;5012588;28;88032;-60
2024/02/28 11:57:59;;;;;;;;;;;10.70;90.00;;;;;;5010551;28;87717;-59
2024/02/28 12:00:25;;;;;;;;;;;10.70;90.00;;;;;;5012759;28;86979;-60
2024/02/28 12:02:51;;;;;;;;;;;10.70;90.00;;;;;;5015260;28;87026;-60
2024/02/28 12:05:19;;;;;;;;;;;10.70;90.00;;;;;;5012990;28;87464;-56
2024/02/28 12:07:45;;;;;;;;;;;10.70;90.00;;;;;;5010604;28;87000;-58
2024/02/28 12:10:11;;;;;;;;;;;10.70;90.00;;;;;;5011433;28;88650;-59
2024/02/28 12:12:38;;;;;;;;;;;10.70;89.80;;;;;;5012393;28;86293;-60
2024/02/28 12:15:05;;;;;;;;;;;10.80;89.90;;;;;;5013627;28;88653;-60
2024/02/28 12:17:31;;;;;;;;;;;10.80;89.80;;;;;;5018682;28;86977;-60
2024/02/28 12:19:58;;;;;;;;;;;10.80;89.90;;;;;;5014587;28;88578;-60
2024/02/28 12:22:24;;;;;;;;;;;10.80;89.90;;;;;;5018275;28;88011;-60
2024/02/28 12:24:49;;;;;;;;;;;10.80;90.00;;;;;;5015715;28;87703;-58
2024/02/28 12:27:15;;;;;;;;;;;10.80;90.00;;;;;;5014660;28;87851;-59
2024/02/28 12:29:40;;;;;;;;;;;10.80;90.00;;;;;;5012686;28;87072;-60
2024/02/28 12:32:07;;;;;;;;;;;10.90;90.00;;;;;;5017796;28;87403;-60
2024/02/28 12:34:33;;;;;;;;;;;10.90;89.90;;;;;;5017205;28;87021;-60
2024/02/28 12:36:59;;;;;;;;;;;10.90;89.90;;;;;;5009868;28;87546;-60
2024/02/28 12:39:25;;;;;;;;;;;10.90;90.00;;;;;;5016998;28;87102;-59
2024/02/28 12:41:51;;;;;;;;;;;10.90;89.70;;;;;;5015646;28;87001;-60
2024/02/28 12:44:16;;;;;;;;;;;10.90;89.60;;;;;;5014729;28;88939;-57
2024/02/28 12:46:42;;;;;;;;;;;11.00;90.00;;;;;;5013132;28;87165;-60
2024/02/28 12:49:07;;;;;;;;;;;11.00;90.10;;;;;;5017162;28;87082;-60
2024/02/28 12:51:40;;;;;;;;;;;11.00;90.00;;;;;;5019151;28;87710;-60
2024/02/28 12:54:06;;;;;;;;;;;11.00;90.00;;;;;;5015873;28;87671;-58
2024/02/28 12:56:32;;;;;;;;;;;11.00;89.90;;;;;;5014112;28;87757;-60
2024/02/28 12:58:58;;;;;;;;;;;11.00;90.00;;;;;;5012561;28;87460;-60
2024/02/28 13:01:24;;;;;;;;;;;11.00;90.00;;;;;;5020953;28;86196;-60
2024/02/28 13:03:50;;;;;;;;;;;11.10;90.00;;;;;;5011417;28;88016;-60
2024/02/28 13:06:15;;;;;;;;;;;11.10;90.10;;;;;;5012805;28;87031;-59
2024/02/28 13:08:41;;;;;;;;;;;11.10;90.00;;;;;;5021519;28;90528;-60
2024/02/28 13:11:07;;;;;;;;;;;11.10;90.00;;;;;;5015496;28;87988;-60
2024/02/28 13:13:33;;;;;;;;;;;11.20;90.00;;;;;;5014294;28;87163;-60
2024/02/28 13:15:59;;;;;;;;;;;11.20;90.00;;;;;;5011169;28;86983;-60
2024/02/28 13:18:25;;;;;;;;;;;11.20;90.30;;;;;;5013462;28;88112;-60
2024/02/28 13:20:51;;;;;;;;;;;11.20;90.10;;;;;;5022994;28;87850;-59
2024/02/28 13:23:18;;;;;;;;;;;11.20;90.10;;;;;;5017473;28;87081;-56
2024/02/28 13:25:44;;;;;;;;;;;11.20;90.10;;;;;;5016213;28;86273;-60
2024/02/28 13:28:10;;;;;;;;;;;11.20;90.10;;;;;;5014862;28;86911;-60
2024/02/28 13:30:36;;;;;;;;;;;11.20;90.10;;;;;;5016918;28;87607;-60
2024/02/28 13:33:02;;;;;;;;;;;11.30;90.10;;;;;;5017510;28;88707;-60
2024/02/28 13:35:28;;;;;;;;;;;11.30;90.10;;;;;;5012613;28;87702;-60
2024/02/28 13:37:54;;;;;;;;;;;11.30;90.10;;;;;;5016776;28;89958;-60
2024/02/28 13:40:20;;;;;;;;;;;11.40;90.00;;;;;;5014271;28;87041;-60
2024/02/28 13:42:45;;;;;;;;;;;11.30;90.10;;;;;;5012998;28;87241;-60
2024/02/28 13:45:11;;;;;;;;;;;11.40;90.10;;;;;;5019717;28;88061;-60
2024/02/28 13:47:37;;;;;;;;;;;11.40;90.10;;;;;;5016778;28;87036;-61
2024/02/28 13:50:02;;;;;;;;;;;11.40;90.00;;;;;;5018028;28;88099;-59
2024/02/28 13:52:28;;;;;;;;;;;11.50;90.00;;;;;;5013213;28;87594;-56
2024/02/28 13:54:54;;;;;;;;;;;11.50;90.00;;;;;;5018220;28;87736;-60
2024/02/28 13:57:19;;;;;;;;;;;11.50;90.10;;;;;;5012621;28;88394;-58
2024/02/28 14:00:06;;;;;;;;;;;11.50;90.10;;;;;;5019064;28;87006;-59
2024/02/28 14:02:32;;;;;;;;;;;11.50;90.10;;;;;;5012268;28;87888;-59
2024/02/28 14:04:57;;;;;;;;;;;11.50;90.10;;;;;;5017661;28;87593;-60
2024/02/28 14:07:23;;;;;;;;;;;11.50;90.10;;;;;;5014507;28;86912;-60
2024/02/28 14:09:48;;;;;;;;;;;11.50;90.10;;;;;;5013941;28;88677;-60
2024/02/28 14:12:14;;;;;;;;;;;11.50;90.20;;;;;;5014017;28;88827;-59
2024/02/28 14:14:40;;;;;;;;;;;11.50;90.20;;;;;;5017126;28;87050;-59